Time;durP1;ratioP1;P1;durP2;ratioP2;P2;SDS_P1;SDS_P2;PMS_P1;PMS_P2;Temp;Humidity;BMP_temperature;BMP_pressure;BME280_temperature;BME280_humidity;BME280_pressure;Samples;Min_cycle;Max_cycle;Signal;HPM_P1;HPM_P2
2022/09/05 00:02:00;;;;;;;3.93;3.30;;;;;;;20.80;58.30;97898.91;5040750;28;20450;-71
2022/09/05 00:04:27;;;;;;;9.20;2.87;;;;;;;20.81;58.21;97901.41;5058008;28;20428;-72
2022/09/05 00:06:59;;;;;;;5.90;3.57;;;;;;;20.76;58.40;97897.69;5051056;28;20241;-71
2022/09/05 00:09:43;;;;;;;6.57;3.27;;;;;;;20.74;58.57;97897.03;5052392;28;20432;-69
2022/09/05 00:12:09;;;;;;;7.70;3.07;;;;;;;20.74;58.53;97891.72;5048015;28;20450;-71
2022/09/05 00:15:07;;;;;;;4.90;3.33;;;;;;;20.73;58.77;97890.88;5052821;28;20817;-70
2022/09/05 00:17:42;;;;;;;3.37;3.07;;;;;;;20.71;58.81;97887.63;5048007;28;20463;-70
2022/09/05 00:20:35;;;;;;;3.50;3.20;;;;;;;20.69;58.48;97884.34;5042781;28;20512;-70
2022/09/05 00:23:12;;;;;;;4.20;3.00;;;;;;;20.67;58.61;97884.50;5038780;28;20517;-70
2022/09/05 00:26:02;;;;;;;4.20;3.30;;;;;;;20.58;59.00;97877.72;5044035;28;20482;-70
2022/09/05 00:28:37;;;;;;;5.33;3.03;;;;;;;20.65;58.85;97886.59;5040848;28;20833;-70
2022/09/05 00:31:38;;;;;;;3.60;3.03;;;;;;;20.63;58.42;97891.28;5041313;28;20524;-69
2022/09/05 00:34:25;;;;;;;5.27;3.43;;;;;;;20.65;58.34;97881.25;5038697;28;20453;-69
2022/09/05 00:36:53;;;;;;;3.53;3.20;;;;;;;20.62;58.64;97876.31;5040492;28;20469;-70
2022/09/05 00:39:25;;;;;;;7.47;3.40;;;;;;;20.51;58.71;97871.59;5052535;28;20796;-69
2022/09/05 00:41:53;;;;;;;4.80;3.10;;;;;;;20.47;58.88;97878.31;5052963;28;20501;-69
2022/09/05 00:44:21;;;;;;;5.30;3.27;;;;;;;20.47;58.84;97881.81;5058247;28;20824;-72
2022/09/05 00:47:00;;;;;;;3.40;3.10;;;;;;;20.45;58.97;97877.69;5047685;28;20458;-70
2022/09/05 00:49:47;;;;;;;4.43;3.10;;;;;;;20.41;58.91;97875.41;5065584;28;20424;-71
2022/09/05 00:52:19;;;;;;;3.60;3.20;;;;;;;20.42;59.03;97887.72;5054800;28;20449;-72
2022/09/05 00:55:14;;;;;;;5.67;3.10;;;;;;;20.41;59.08;97883.41;5069794;28;20914;-69
2022/09/05 00:58:02;;;;;;;5.57;2.97;;;;;;;20.41;59.10;97887.91;5051912;28;20777;-70
2022/09/05 01:00:53;;;;;;;3.93;2.87;;;;;;;20.44;59.01;97897.34;5067556;28;20464;-70
2022/09/05 01:03:33;;;;;;;3.20;2.90;;;;;;;20.42;58.86;97895.69;5055576;28;20524;-70
2022/09/05 01:06:01;;;;;;;3.00;2.70;;;;;;;20.39;59.01;97895.28;5060329;28;20514;-70
2022/09/05 01:09:14;;;;;;;4.80;2.97;;;;;;;20.37;58.79;97890.16;5065540;28;20508;-69
2022/09/05 01:11:52;;;;;;;4.30;3.03;;;;;;;20.36;58.54;97895.66;5049482;28;21036;-71
2022/09/05 01:14:26;;;;;;;3.63;2.90;;;;;;;20.25;59.14;97889.09;5063205;28;20966;-70
2022/09/05 01:17:16;;;;;;;9.70;3.00;;;;;;;20.21;59.31;97887.84;5069435;28;20420;-70
2022/09/05 01:20:12;;;;;;;6.10;2.77;;;;;;;20.13;59.31;97888.00;5054311;28;20989;-70
2022/09/05 01:22:57;;;;;;;4.90;2.77;;;;;;;20.20;59.11;97875.53;5049864;28;20440;-70
2022/09/05 01:25:32;;;;;;;8.03;3.27;;;;;;;20.10;59.51;97876.75;5066598;28;20427;-70
2022/09/05 01:28:12;;;;;;;4.23;2.70;;;;;;;20.07;59.42;97871.81;5054026;28;20484;-70
2022/09/05 01:30:47;;;;;;;6.30;2.90;;;;;;;20.05;59.09;97873.84;5059057;28;20445;-70
2022/09/05 01:33:42;;;;;;;4.00;3.47;;;;;;;19.92;59.95;97874.59;5068265;28;20443;-71
2022/09/05 01:36:46;;;;;;;3.70;2.80;;;;;;;19.93;60.07;97864.75;5064637;28;20425;-71
2022/09/05 01:39:22;;;;;;;3.70;2.83;;;;;;;19.93;59.59;97860.28;5063084;28;20434;-70
2022/09/05 01:41:53;;;;;;;2.90;2.67;;;;;;;19.95;59.48;97854.75;5067471;28;20444;-70
2022/09/05 01:44:28;;;;;;;8.03;3.03;;;;;;;19.94;59.43;97861.09;5062790;28;20519;-70
2022/09/05 01:47:22;;;;;;;2.70;2.50;;;;;;;19.93;59.53;97859.44;5066693;28;20467;-70
2022/09/05 01:50:09;;;;;;;5.40;3.03;;;;;;;19.85;60.01;97868.38;5060418;28;20433;-70
2022/09/05 01:52:41;;;;;;;3.83;3.00;;;;;;;19.86;59.69;97863.88;5058488;28;20417;-70
2022/09/05 01:55:12;;;;;;;3.90;3.10;;;;;;;19.91;59.49;97864.16;5060810;28;20491;-70
2022/09/05 01:57:48;;;;;;;3.07;2.83;;;;;;;19.87;59.52;97862.91;5070250;28;20416;-69
2022/09/05 02:00:30;;;;;;;3.10;2.67;;;;;;;19.82;59.97;97868.78;5060266;28;20501;-70
2022/09/05 02:03:15;;;;;;;3.30;2.73;;;;;;;19.79;59.77;97867.31;5058440;28;20435;-69
2022/09/05 02:05:52;;;;;;;5.30;3.00;;;;;;;19.86;59.96;97869.22;5058770;28;20819;-70
2022/09/05 02:08:43;;;;;;;5.83;3.10;;;;;;;19.87;59.84;97877.00;5061527;28;20444;-70
2022/09/05 02:11:10;;;;;;;2.93;2.73;;;;;;;19.88;59.70;97867.22;5052300;28;21030;-70
2022/09/05 02:13:35;;;;;;;3.93;3.20;;;;;;;19.85;59.94;97872.88;5062761;28;20797;-70
2022/09/05 02:16:28;;;;;;;3.70;2.87;;;;;;;19.78;60.02;97864.88;5068197;28;20424;-70
2022/09/05 02:18:58;;;;;;;3.70;2.93;;;;;;;19.80;59.98;97860.97;5054937;28;20754;-70
2022/09/05 02:21:27;;;;;;;3.00;2.70;;;;;;;19.86;60.09;97858.56;5060040;28;20453;-70
2022/09/05 02:24:08;;;;;;;3.50;3.20;;;;;;;19.84;59.69;97861.44;5060976;28;20512;-70
2022/09/05 02:26:59;;;;;;;7.60;2.80;;;;;;;19.80;59.29;97860.97;5055579;28;20463;-69
2022/09/05 02:29:45;;;;;;;2.57;2.37;;;;;;;19.74;59.44;97864.44;5063387;28;20880;-70
2022/09/05 02:32:12;;;;;;;7.80;2.87;;;;;;;19.66;59.71;97864.56;5063260;28;20477;-70
2022/09/05 02:34:49;;;;;;;3.27;2.97;;;;;;;19.62;59.98;97868.66;5062350;28;20797;-69
2022/09/05 02:37:41;;;;;;;2.97;2.77;;;;;;;19.69;59.86;97864.19;5048077;28;21004;-70
2022/09/05 02:40:30;;;;;;;3.87;2.77;;;;;;;19.64;60.19;97861.31;5062238;28;20913;-71
2022/09/05 02:43:20;;;;;;;3.47;3.07;;;;;;;19.64;60.18;97870.09;5061961;28;20414;-70
2022/09/05 02:46:13;;;;;;;4.80;3.10;;;;;;;19.66;60.26;97864.56;5069194;28;20417;-71
2022/09/05 02:48:53;;;;;;;3.27;2.97;;;;;;;19.64;60.10;97866.63;5065412;28;20424;-70
2022/09/05 02:51:28;;;;;;;3.53;3.17;;;;;;;19.64;60.22;97872.75;5060346;28;20437;-69
2022/09/05 02:53:59;;;;;;;9.33;3.50;;;;;;;19.62;60.19;97863.34;5065477;28;20427;-70
2022/09/05 02:56:45;;;;;;;6.53;3.00;;;;;;;19.56;60.32;97864.09;5053980;28;20982;-69
2022/09/05 02:59:50;;;;;;;4.50;3.20;;;;;;;19.56;60.05;97866.75;5066238;28;20424;-69
2022/09/05 03:02:52;;;;;;;3.37;3.07;;;;;;;19.52;60.22;97862.88;5034281;28;20448;-68
2022/09/05 03:05:35;;;;;;;3.33;3.03;;;;;;;19.45;60.35;97866.28;5061513;28;20433;-70
2022/09/05 03:08:21;;;;;;;3.87;3.10;;;;;;;19.44;60.31;97859.31;5059938;28;20494;-70
2022/09/05 03:11:11;;;;;;;9.50;3.20;;;;;;;19.44;60.51;97856.66;5051923;28;20483;-70
2022/09/05 03:13:58;;;;;;;3.23;2.90;;;;;;;19.44;60.67;97856.66;5062376;28;20452;-71
2022/09/05 03:16:42;;;;;;;7.03;3.00;;;;;;;19.40;60.68;97854.59;5066115;28;20417;-69
2022/09/05 03:19:13;;;;;;;3.00;2.80;;;;;;;19.38;60.76;97851.31;5059155;28;20429;-70
2022/09/05 03:21:57;;;;;;;3.00;2.70;;;;;;;19.37;60.64;97849.66;5058115;28;20450;-70
2022/09/05 03:24:40;;;;;;;3.87;2.90;;;;;;;19.25;60.84;97844.88;5061787;28;20455;-70
2022/09/05 03:27:17;;;;;;;4.13;2.90;;;;;;;19.25;60.60;97857.34;5062610;28;20466;-69
2022/09/05 03:29:49;;;;;;;5.10;3.10;;;;;;;19.23;60.72;97854.06;5063767;28;20451;-69
2022/09/05 03:32:37;;;;;;;3.50;3.10;;;;;;;19.24;60.89;97853.03;5063743;28;20812;-70
2022/09/05 03:35:24;;;;;;;5.23;3.00;;;;;;;19.26;61.00;97853.69;5058231;28;20429;-70
2022/09/05 03:38:16;;;;;;;5.00;3.50;;;;;;;19.21;61.34;97853.41;5056000;28;20506;-69
2022/09/05 03:40:50;;;;;;;4.40;3.00;;;;;;;19.22;61.26;97852.41;5057615;28;20491;-70
2022/09/05 03:43:44;;;;;;;5.83;3.30;;;;;;;19.25;61.10;97860.00;5057863;28;20816;-70
2022/09/05 03:46:21;;;;;;;3.30;3.00;;;;;;;19.25;61.33;97858.16;5061964;28;20458;-70
2022/09/05 03:49:17;;;;;;;7.80;3.60;;;;;;;19.23;61.44;97860.19;5065453;28;20416;-69
2022/09/05 03:52:02;;;;;;;5.40;3.70;;;;;;;19.22;61.31;97855.06;5035599;28;20494;-70
2022/09/05 03:54:32;;;;;;;6.60;3.30;;;;;;;19.26;61.25;97864.31;5032408;28;20421;-68
2022/09/05 03:57:17;;;;;;;4.17;3.70;;;;;;;19.22;61.54;97863.03;5061497;28;20423;-69
2022/09/05 03:59:46;;;;;;;4.20;3.23;;;;;;;19.23;61.44;97859.38;5055287;28;20428;-69
2022/09/05 04:02:15;;;;;;;3.83;3.30;;;;;;;19.19;61.49;97859.75;5055105;28;20819;-71
2022/09/05 04:04:40;;;;;;;3.90;3.60;;;;;;;19.25;61.37;97862.66;5064321;28;20913;-70
2022/09/05 04:07:19;;;;;;;3.77;3.13;;;;;;;19.22;61.04;97860.38;5057897;28;20465;-68
2022/09/05 04:09:53;;;;;;;3.57;3.27;;;;;;;19.17;61.28;97863.63;5056118;28;20184;-69
2022/09/05 04:12:37;;;;;;;5.63;3.43;;;;;;;19.13;61.53;97857.88;5059117;28;20516;-70
2022/09/05 04:15:03;;;;;;;3.90;3.57;;;;;;;19.15;61.35;97858.47;5068342;28;20456;-68
2022/09/05 04:17:36;;;;;;;4.33;3.50;;;;;;;19.18;61.13;97863.41;5064874;28;20412;-70
2022/09/05 04:20:15;;;;;;;7.43;4.47;;;;;;;19.22;61.05;97863.03;5050557;28;20198;-69
2022/09/05 04:23:03;;;;;;;3.60;3.30;;;;;;;19.21;60.76;97856.06;5061608;28;20973;-69
2022/09/05 04:25:52;;;;;;;4.03;3.63;;;;;;;19.23;60.52;97851.41;5063480;28;20409;-68
2022/09/05 04:28:49;;;;;;;4.57;3.40;;;;;;;19.13;60.98;97852.56;5055877;28;20910;-69
2022/09/05 04:31:23;;;;;;;7.93;3.53;;;;;;;19.19;60.82;97859.75;5069547;28;20471;-70
2022/09/05 04:34:04;;;;;;;4.60;3.20;;;;;;;19.11;61.18;97857.22;5066133;28;20455;-70
2022/09/05 04:36:32;;;;;;;5.13;2.63;;;;;;;19.15;61.22;97861.13;5058358;28;20425;-69
2022/09/05 04:39:16;;;;;;;5.20;2.97;;;;;;;19.14;61.28;97862.19;5057784;28;20508;-70
2022/09/05 04:41:55;;;;;;;2.93;2.60;;;;;;;19.15;61.31;97863.78;5069427;28;20440;-70
2022/09/05 04:44:36;;;;;;;3.30;3.00;;;;;;;19.11;61.25;97865.22;5064556;28;20923;-71
2022/09/05 04:47:08;;;;;;;4.43;4.03;;;;;;;19.14;61.48;97871.97;5063165;28;20564;-69
2022/09/05 04:49:41;;;;;;;4.80;3.57;;;;;;;19.17;61.53;97872.41;5063170;28;20921;-70
2022/09/05 04:52:30;;;;;;;4.33;3.93;;;;;;;19.14;61.65;97872.81;5057889;28;20449;-69
2022/09/05 04:55:08;;;;;;;4.63;3.67;;;;;;;19.12;61.67;97868.66;5062653;28;20483;-69
2022/09/05 04:57:41;;;;;;;4.53;3.30;;;;;;;19.08;61.67;97876.19;5057746;28;20416;-69
2022/09/05 05:00:14;;;;;;;5.50;3.50;;;;;;;19.09;61.54;97882.34;5060015;28;20425;-69
2022/09/05 05:02:52;;;;;;;4.60;4.03;;;;;;;19.13;61.51;97889.75;5062975;28;20432;-70
2022/09/05 05:05:21;;;;;;;4.43;4.03;;;;;;;19.15;61.47;97884.22;5049298;28;20425;-70
2022/09/05 05:07:59;;;;;;;4.80;3.23;;;;;;;19.16;61.31;97878.72;5057302;28;20483;-70
2022/09/05 05:10:41;;;;;;;3.57;3.27;;;;;;;19.16;61.53;97884.03;5061769;28;20459;-70
2022/09/05 05:13:42;;;;;;;4.40;3.67;;;;;;;19.10;61.80;97887.47;5061189;28;20417;-70
2022/09/05 05:16:17;;;;;;;5.80;3.90;;;;;;;19.15;61.57;97895.66;5052557;28;20444;-69
2022/09/05 05:18:49;;;;;;;5.53;3.93;;;;;;;19.15;61.51;97890.34;5041613;28;20428;-70
2022/09/05 05:21:17;;;;;;;3.67;3.37;;;;;;;19.17;61.51;97891.00;5044041;28;20445;-72
2022/09/05 05:23:47;;;;;;;9.53;3.73;;;;;;;19.23;61.55;97897.38;5052207;28;20410;-71
2022/09/05 05:26:29;;;;;;;7.30;3.60;;;;;;;19.24;61.59;97903.53;5047941;28;20807;-71
2022/09/05 05:29:27;;;;;;;5.83;4.80;;;;;;;19.27;61.69;97895.19;5053990;28;21225;-70
2022/09/05 05:31:55;;;;;;;6.03;4.40;;;;;;;19.26;61.88;97902.31;5036984;28;21032;-72
2022/09/05 05:34:23;;;;;;;10.10;4.57;;;;;;;19.27;61.82;97898.66;5056791;28;20457;-70
2022/09/05 05:36:56;;;;;;;6.60;5.07;;;;;;;19.30;61.88;97902.75;5059875;28;20437;-69
2022/09/05 05:39:24;;;;;;;7.83;4.80;;;;;;;19.32;62.00;97904.22;5051456;28;20477;-70
2022/09/05 05:41:53;;;;;;;8.97;6.53;;;;;;;19.37;61.93;97908.13;5062522;28;20449;-72
2022/09/05 05:44:27;;;;;;;10.60;5.17;;;;;;;19.42;61.94;97908.38;5037827;28;20438;-70
2022/09/05 05:47:08;;;;;;;7.73;5.53;;;;;;;19.47;61.98;97903.28;5042981;28;20490;-70
2022/09/05 05:49:48;;;;;;;7.90;4.77;;;;;;;19.56;62.27;97901.31;5041890;28;20422;-71
2022/09/05 05:52:35;;;;;;;8.17;5.63;;;;;;;19.66;61.77;97909.78;5037722;28;20464;-69
2022/09/05 05:55:25;;;;;;;13.87;5.50;;;;;;;19.73;61.67;97913.31;5038503;28;20414;-72
2022/09/05 05:58:05;;;;;;;12.33;4.93;;;;;;;19.84;61.85;97908.47;5040782;28;20456;-70
2022/09/05 06:01:05;;;;;;;6.30;4.97;;;;;;;19.96;61.78;97920.25;5040005;28;20469;-70
2022/09/05 06:03:41;;;;;;;10.60;4.93;;;;;;;20.10;61.50;97911.31;5036489;28;20405;-70
2022/09/05 06:06:16;;;;;;;7.70;4.40;;;;;;;20.17;61.19;97915.84;5039563;28;20454;-71
2022/09/05 06:09:23;;;;;;;5.93;4.70;;;;;;;20.30;61.49;97915.09;5042444;28;20510;-70
2022/09/05 06:12:15;;;;;;;12.20;3.97;;;;;;;20.41;60.88;97915.34;5059872;28;20437;-70
2022/09/05 06:14:53;;;;;;;4.77;3.80;;;;;;;20.49;60.32;97921.53;5039833;28;20419;-70
2022/09/05 06:17:34;;;;;;;6.50;4.20;;;;;;;20.50;59.93;97920.53;5039731;28;20429;-70
2022/09/05 06:20:38;;;;;;;8.27;3.80;;;;;;;20.56;60.08;97925.03;5037465;28;20425;-70
2022/09/05 06:23:21;;;;;;;7.17;4.27;;;;;;;20.66;60.10;97922.84;5042075;28;20480;-70
2022/09/05 06:26:06;;;;;;;6.20;4.20;;;;;;;20.82;60.02;97928.84;5043620;28;20825;-71
2022/09/05 06:29:00;;;;;;;5.53;3.97;;;;;;;20.95;59.62;97931.53;5040505;28;20424;-71
2022/09/05 06:31:43;;;;;;;5.10;3.87;;;;;;;21.07;59.19;97920.28;5048267;28;20445;-72
2022/09/05 06:34:21;;;;;;;6.40;3.93;;;;;;;21.26;58.87;97919.50;5041213;28;20414;-73
2022/09/05 06:36:56;;;;;;;6.40;4.27;;;;;;;21.42;58.77;97920.13;5048991;28;20452;-71
2022/09/05 06:39:37;;;;;;;7.20;3.80;;;;;;;21.59;58.89;97918.72;5049469;28;20466;-73
2022/09/05 06:42:33;;;;;;;7.90;3.47;;;;;;;21.80;58.33;97916.84;5051109;28;20453;-72
2022/09/05 06:45:14;;;;;;;6.23;3.63;;;;;;;22.00;57.50;97926.69;5052568;28;20485;-71
2022/09/05 06:47:42;;;;;;;3.63;3.33;;;;;;;22.12;57.02;97914.31;5045759;28;20465;-72
2022/09/05 06:50:14;;;;;;;10.33;3.30;;;;;;;22.25;57.20;97914.28;5050603;28;20421;-72
2022/09/05 06:52:42;;;;;;;4.10;3.70;;;;;;;22.42;57.00;97923.72;5047900;28;21003;-71
2022/09/05 06:55:30;;;;;;;7.03;3.60;;;;;;;22.51;56.43;97933.94;5040289;28;20430;-71
2022/09/05 06:58:20;;;;;;;6.33;3.50;;;;;;;22.61;55.74;97933.50;5031858;28;20440;-71
2022/09/05 07:00:53;;;;;;;7.57;3.27;;;;;;;22.71;55.45;97933.03;5036928;28;20446;-72
2022/09/05 07:03:45;;;;;;;6.70;3.50;;;;;;;22.85;55.09;97929.25;5032647;28;20437;-72
2022/09/05 07:06:18;;;;;;;4.70;3.20;;;;;;;23.08;55.11;97927.88;5041138;28;20466;-72
2022/09/05 07:09:20;;;;;;;5.37;3.07;;;;;;;23.35;54.88;97932.28;5031255;28;20485;-72
2022/09/05 07:12:27;;;;;;;3.43;3.13;;;;;;;23.58;53.94;97927.16;5027781;28;20438;-72
2022/09/05 07:15:23;;;;;;;4.30;3.07;;;;;;;23.82;53.49;97926.53;5035571;28;20410;-72
2022/09/05 07:18:21;;;;;;;3.03;2.67;;;;;;;24.03;52.49;97922.63;5033798;28;20412;-72
2022/09/05 07:20:51;;;;;;;3.60;2.80;;;;;;;24.29;52.53;97926.91;5042410;28;20445;-72
2022/09/05 07:23:39;;;;;;;3.27;2.83;;;;;;;24.55;51.92;97922.28;5040298;28;20430;-72
2022/09/05 07:26:08;;;;;;;3.60;2.90;;;;;;;24.80;51.33;97921.34;5034406;28;20489;-71
2022/09/05 07:28:34;;;;;;;3.33;2.83;;;;;;;25.02;50.80;97923.53;5036217;28;20859;-72
2022/09/05 07:31:04;;;;;;;4.60;2.77;;;;;;;25.22;50.02;97924.03;5025883;28;21023;-71
2022/09/05 07:33:30;;;;;;;2.60;2.40;;;;;;;25.41;49.24;97926.69;5035052;28;20444;-71
2022/09/05 07:36:07;;;;;;;6.67;2.47;;;;;;;25.59;48.91;97923.09;5025786;28;20438;-71
2022/09/05 07:38:34;;;;;;;2.80;2.60;;;;;;;25.74;48.05;97919.94;5039572;28;20432;-72
2022/09/05 07:41:14;;;;;;;3.00;2.43;;;;;;;25.94;47.90;97918.78;5042408;28;20509;-73
2022/09/05 07:43:41;;;;;;;13.90;3.20;;;;;;;25.96;46.46;97927.41;5037542;28;20425;-72
2022/09/05 07:46:19;;;;;;;8.37;2.80;;;;;;;26.13;46.26;97922.97;5039249;28;21027;-73
2022/09/05 07:49:06;;;;;;;4.47;2.50;;;;;;;26.21;46.20;97925.28;5047476;28;20429;-72
2022/09/05 07:51:34;;;;;;;2.30;2.10;;;;;;;26.42;45.63;97924.88;5041570;28;20495;-72
2022/09/05 07:54:04;;;;;;;2.23;2.00;;;;;;;26.63;45.25;97915.38;5047412;28;20934;-73
2022/09/05 07:56:45;;;;;;;1.97;1.77;;;;;;;26.75;43.60;97924.19;5042910;28;20418;-72
2022/09/05 07:59:12;;;;;;;2.30;2.10;;;;;;;26.70;42.57;97926.81;5048950;28;20425;-71
2022/09/05 08:01:43;;;;;;;4.83;1.90;;;;;;;26.72;42.93;97921.19;5038895;28;20481;-72
2022/09/05 08:04:30;;;;;;;4.80;1.80;;;;;;;26.89;42.94;97929.31;5047401;28;20434;-71
2022/09/05 08:06:59;;;;;;;3.83;2.30;;;;;;;27.15;42.46;97927.94;5042537;28;20454;-71
2022/09/05 08:09:27;;;;;;;2.80;2.13;;;;;;;27.21;41.89;97923.44;5049959;28;20528;-73
2022/09/05 08:11:56;;;;;;;4.53;2.07;;;;;;;27.45;41.95;97924.13;5046853;28;20442;-72
2022/09/05 08:14:43;;;;;;;2.97;2.30;;;;;;;27.77;42.21;97925.41;5051417;28;20426;-73
2022/09/05 08:17:18;;;;;;;2.40;1.90;;;;;;;28.04;41.79;97930.91;5044652;28;20423;-72
2022/09/05 08:19:53;;;;;;;2.70;2.00;;;;;;;27.93;41.09;97929.97;5046350;28;20459;-73
2022/09/05 08:22:30;;;;;;;5.03;2.40;;;;;;;28.09;40.46;97924.81;5055503;28;20446;-73
2022/09/05 08:25:01;;;;;;;4.77;2.10;;;;;;;28.46;40.55;97921.53;5045120;28;21176;-73
2022/09/05 08:27:55;;;;;;;8.70;2.40;;;;;;;28.41;40.39;97918.75;5048370;28;20535;-72
2022/09/05 08:30:22;;;;;;;3.30;2.23;;;;;;;28.58;39.49;97916.81;5027666;28;20426;-72
2022/09/05 08:32:51;;;;;;;2.90;2.10;;;;;;;28.85;39.37;97913.34;5049435;28;20807;-72
2022/09/05 08:35:27;;;;;;;4.00;2.53;;;;;;;29.09;38.94;97918.44;5048096;28;20449;-72
2022/09/05 08:37:53;;;;;;;7.60;2.40;;;;;;;29.17;38.60;97906.38;5051805;28;20790;-73
2022/09/05 08:40:26;;;;;;;7.93;2.20;;;;;;;29.54;38.26;97905.59;5053413;28;20427;-73
2022/09/05 08:43:04;;;;;;;8.43;2.90;;;;;;;29.73;37.20;97914.09;5050872;28;20418;-72
2022/09/05 08:45:35;;;;;;;2.80;2.17;;;;;;;29.86;36.93;97912.81;5058378;28;20425;-73
2022/09/05 08:48:16;;;;;;;8.47;2.33;;;;;;;29.89;37.04;97907.69;5051247;28;20461;-72
2022/09/05 08:50:44;;;;;;;4.50;2.40;;;;;;;30.05;36.76;97913.22;5057312;28;20443;-72
2022/09/05 08:53:12;;;;;;;3.03;2.73;;;;;;;30.22;36.29;97909.53;5053122;28;20491;-73
2022/09/05 08:55:53;;;;;;;22.27;3.27;;;;;;;30.26;35.81;97914.13;5058691;28;20453;-72
2022/09/05 08:58:34;;;;;;;7.43;3.13;;;;;;;30.56;35.84;97911.84;5048819;28;20438;-72
2022/09/05 09:01:14;;;;;;;2.60;2.40;;;;;;;30.91;35.66;97907.59;5046486;28;20480;-72
2022/09/05 09:03:42;;;;;;;2.30;2.17;;;;;;;31.14;35.00;97908.19;5051799;28;20426;-71
2022/09/05 09:06:15;;;;;;;26.03;3.20;;;;;;;31.40;34.92;97906.31;5055749;28;21151;-72
2022/09/05 09:09:08;;;;;;;2.37;1.90;;;;;;;31.43;34.20;97907.66;5043918;28;20429;-72
2022/09/05 09:11:41;;;;;;;7.30;3.63;;;;;;;31.73;34.28;97908.75;5049208;28;20459;-71
2022/09/05 09:14:30;;;;;;;7.27;6.60;;;;;;;31.82;34.30;97915.22;5051564;28;20488;-72
2022/09/05 09:17:27;;;;;;;5.13;3.27;;;;;;;32.05;34.03;97907.56;5049423;28;20429;-72
2022/09/05 09:20:14;;;;;;;11.33;4.87;;;;;;;32.27;33.58;97909.97;5050874;28;20811;-72
2022/09/05 09:23:00;;;;;;;8.20;3.00;;;;;;;32.41;32.66;97908.28;5051890;28;20446;-72
2022/09/05 09:25:43;;;;;;;5.07;3.60;;;;;;;32.61;32.89;97904.66;5051442;28;20421;-75
2022/09/05 09:28:42;;;;;;;5.30;4.80;;;;;;;32.79;32.53;97899.66;5050462;28;20511;-71
2022/09/05 09:31:50;;;;;;;5.30;4.80;;;;;;;33.06;32.47;97887.56;5048059;28;20949;-72
2022/09/05 09:34:24;;;;;;;4.23;3.80;;;;;;;33.28;32.70;97897.16;5042135;28;20762;-71
2022/09/05 09:37:14;;;;;;;2.77;2.40;;;;;;;33.36;32.48;97891.16;5013285;28;1083119;-72
2022/09/05 09:39:52;;;;;;;3.73;2.03;;;;;;;32.95;31.22;97894.16;5051974;28;20277;-73
2022/09/05 09:42:56;;;;;;;6.10;2.20;;;;;;;32.99;32.05;97887.06;5052341;28;20445;-71
2022/09/05 09:45:44;;;;;;;5.93;2.33;;;;;;;33.37;31.07;97890.06;5040854;28;20455;-71
2022/09/05 09:48:09;;;;;;;4.83;1.43;;;;;;;33.43;29.88;97883.47;5043196;28;20449;-71
2022/09/05 09:50:53;;;;;;;3.57;2.00;;;;;;;33.35;29.99;97884.09;5053314;28;20445;-72
2022/09/05 09:53:21;;;;;;;3.03;1.93;;;;;;;33.58;29.99;97884.44;5049184;28;20213;-72
2022/09/05 09:56:06;;;;;;;1.70;1.57;;;;;;;33.78;30.59;97878.78;5052140;28;20433;-72
2022/09/05 09:59:08;;;;;;;2.23;1.80;;;;;;;33.94;30.24;97884.06;5043270;28;20491;-72
2022/09/05 10:01:53;;;;;;;4.40;1.77;;;;;;;34.13;29.38;97878.69;5042632;28;20598;-72
2022/09/05 10:05:07;;;;;;;4.23;1.97;;;;;;;34.32;28.71;97875.19;5051322;28;20846;-72
2022/09/05 10:07:42;;;;;;;1.50;1.40;;;;;;;34.41;28.33;97885.13;5000542;28;20546;-73
2022/09/05 10:10:24;;;;;;;2.00;1.50;;;;;;;34.10;28.02;97880.09;5038311;28;20990;-72
2022/09/05 10:13:32;;;;;;;1.70;1.33;;;;;;;34.30;28.50;97878.19;5046362;28;20444;-73
2022/09/05 10:16:23;;;;;;;4.23;1.60;;;;;;;34.63;28.51;97880.22;5039622;28;20535;-73
2022/09/05 10:19:07;;;;;;;1.77;1.57;;;;;;;34.76;28.05;97877.59;5044649;28;20418;-72
2022/09/05 10:21:43;;;;;;;1.80;1.70;;;;;;;34.64;27.45;97879.97;5059186;28;20445;-72
2022/09/05 10:24:27;;;;;;;1.77;1.67;;;;;;;35.01;27.07;97880.25;5051502;28;20586;-71
2022/09/05 10:27:14;;;;;;;2.80;1.73;;;;;;;35.16;27.26;97865.59;5050668;28;20560;-72
2022/09/05 10:29:47;;;;;;;2.43;1.50;;;;;;;34.83;25.91;97868.25;5044526;28;21018;-72
2022/09/05 10:32:39;;;;;;;2.80;1.43;;;;;;;34.61;26.30;97866.94;5049099;28;20552;-71
2022/09/05 10:35:24;;;;;;;3.87;1.77;;;;;;;34.56;26.42;97858.84;5038130;28;20422;-70
2022/09/05 10:38:10;;;;;;;7.50;4.37;;;;;;;34.99;26.97;97845.16;5049237;28;20425;-72
2022/09/05 10:40:37;;;;;;;3.97;1.90;;;;;;;35.20;25.04;97839.34;5051259;28;20460;-72
2022/09/05 10:43:11;;;;;;;3.80;1.80;;;;;;;35.33;25.48;97844.03;5033272;28;20982;-71
2022/09/05 10:45:46;;;;;;;1.83;1.73;;;;;;;35.13;25.16;97837.00;5056328;28;20457;-71
2022/09/05 10:48:24;;;;;;;4.43;2.33;;;;;;;35.09;26.06;97833.28;5046674;28;20591;-71
2022/09/05 10:50:59;;;;;;;2.13;2.03;;;;;;;35.43;25.53;97829.44;5051070;28;20440;-71
2022/09/05 10:53:39;;;;;;;2.83;1.97;;;;;;;35.37;25.35;97839.59;5049420;28;20445;-72
2022/09/05 10:56:12;;;;;;;4.30;3.00;;;;;;;35.53;25.25;97828.47;5049471;28;20936;-72
2022/09/05 10:58:45;;;;;;;2.80;2.50;;;;;;;35.70;24.91;97829.75;5049159;28;20947;-72
2022/09/05 11:01:38;;;;;;;3.10;2.80;;;;;;;35.86;25.02;97832.97;5048442;28;20809;-71
2022/09/05 11:04:40;;;;;;;2.03;1.67;;;;;;;36.09;24.85;97828.44;5050862;28;20923;-73
2022/09/05 11:07:43;;;;;;;2.60;1.40;;;;;;;36.18;24.52;97823.88;5045309;28;20947;-73
2022/09/05 11:10:19;;;;;;;1.90;1.43;;;;;;;36.15;22.72;97818.25;5051693;28;20413;-72
2022/09/05 11:12:51;;;;;;;1.97;1.57;;;;;;;36.26;23.80;97806.00;5049805;28;20471;-73
2022/09/05 11:15:16;;;;;;;3.13;2.00;;;;;;;36.53;24.73;97824.25;5050382;28;20916;-72
2022/09/05 11:17:54;;;;;;;3.10;1.70;;;;;;;36.48;23.84;97821.63;5049829;28;20425;-73
2022/09/05 11:20:32;;;;;;;1.80;1.70;;;;;;;36.40;23.49;97820.41;5051543;28;20603;-73
2022/09/05 11:23:07;;;;;;;2.07;1.80;;;;;;;36.05;24.16;97820.09;5055695;28;20421;-72
2022/09/05 11:25:34;;;;;;;2.43;2.23;;;;;;;35.91;24.66;97822.81;5049328;28;20424;-73
2022/09/05 11:28:09;;;;;;;3.40;1.80;;;;;;;35.21;24.58;97813.75;5049081;28;20505;-72
2022/09/05 11:30:39;;;;;;;1.83;1.43;;;;;;;34.17;25.07;97813.66;5049552;28;20436;-72
2022/09/05 11:33:14;;;;;;;1.83;1.40;;;;;;;33.71;25.44;97818.53;5050477;28;20499;-73
2022/09/05 11:35:39;;;;;;;3.00;1.70;;;;;;;33.35;25.83;97810.78;5047531;28;20420;-71
2022/09/05 11:38:08;;;;;;;3.70;3.30;;;;;;;33.08;27.06;97803.94;5049475;28;20916;-71
2022/09/05 11:40:33;;;;;;;3.07;2.00;;;;;;;32.88;26.68;97819.31;5050841;28;20285;-72
2022/09/05 11:43:14;;;;;;;4.47;2.23;;;;;;;32.82;27.35;97803.34;5048116;28;20505;-71
2022/09/05 11:46:07;;;;;;;2.53;1.83;;;;;;;32.62;27.93;97805.09;5050418;28;20182;-72
2022/09/05 11:49:17;;;;;;;2.70;2.50;;;;;;;32.47;28.59;97803.28;5053595;28;20432;-71
2022/09/05 11:52:07;;;;;;;1.70;1.60;;;;;;;32.38;28.64;97805.78;5043339;28;20494;-71
2022/09/05 11:54:51;;;;;;;4.40;1.80;;;;;;;32.73;28.51;97795.78;5046423;28;20414;-72
2022/09/05 11:58:03;;;;;;;2.47;1.80;;;;;;;32.91;28.49;97801.66;5049023;28;20414;-71
2022/09/05 12:00:39;;;;;;;5.30;1.90;;;;;;;32.81;28.40;97796.31;5027919;28;20525;-71
2022/09/05 12:03:23;;;;;;;1.97;1.70;;;;;;;32.86;28.53;97799.78;5024296;28;20426;-72
2022/09/05 12:06:12;;;;;;;2.77;2.57;;;;;;;32.86;28.00;97796.25;5044004;28;20413;-73
2022/09/05 12:08:40;;;;;;;2.20;2.00;;;;;;;32.82;28.26;97793.31;5031972;28;20528;-73
2022/09/05 12:11:08;;;;;;;2.20;1.67;;;;;;;32.63;28.38;97796.69;5050854;28;20434;-71
2022/09/05 12:13:45;;;;;;;4.23;2.70;;;;;;;32.58;28.82;97794.00;5050061;28;20414;-72
2022/09/05 12:16:22;;;;;;;2.00;1.80;;;;;;;32.34;29.28;97799.28;5048363;28;20436;-73
2022/09/05 12:19:07;;;;;;;3.20;2.03;;;;;;;32.16;29.52;97798.00;5049791;28;20471;-72
2022/09/05 12:21:36;;;;;;;3.27;1.90;;;;;;;31.92;30.13;97795.97;5051336;28;20464;-73
2022/09/05 12:24:28;;;;;;;2.83;1.70;;;;;;;31.71;30.27;97789.81;5049041;28;20421;-70
2022/09/05 12:27:09;;;;;;;5.70;2.97;;;;;;;31.77;29.73;97786.00;5046055;28;20480;-71
2022/09/05 12:29:39;;;;;;;4.17;3.77;;;;;;;31.80;29.77;97790.06;5033326;28;20777;-72
2022/09/05 12:32:12;;;;;;;4.77;3.20;;;;;;;32.09;29.42;97783.97;5048323;28;20438;-73
2022/09/05 12:34:51;;;;;;;3.77;2.50;;;;;;;32.47;29.17;97776.97;5050617;28;20432;-72
2022/09/05 12:37:22;;;;;;;2.70;2.23;;;;;;;32.84;29.38;97780.25;5051363;28;20429;-70